sensor_id;sensor_type;location;lat;lon;timestamp;temperature;humidity
25346;DHT22;13300;51.032;3.710;2022-11-25T00:01:11;10.70;99.90
25346;DHT22;13300;51.032;3.710;2022-11-25T00:03:37;10.60;99.90
25346;DHT22;13300;51.032;3.710;2022-11-25T00:06:07;10.50;99.90
25346;DHT22;13300;51.032;3.710;2022-11-25T00:08:33;10.50;99.90
25346;DHT22;13300;51.032;3.710;2022-11-25T00:11:02;10.30;99.90
25346;DHT22;13300;51.032;3.710;2022-11-25T00:13:27;10.30;99.90
25346;DHT22;13300;51.032;3.710;2022-11-25T00:15:53;10.30;99.90
25346;DHT22;13300;51.032;3.710;2022-11-25T00:18:19;10.20;99.90
25346;DHT22;13300;51.032;3.710;2022-11-25T00:20:44;10.00;99.90
25346;DHT22;13300;51.032;3.710;2022-11-25T00:23:10;9.90;99.90
25346;DHT22;13300;51.032;3.710;2022-11-25T00:25:35;9.90;99.90
25346;DHT22;13300;51.032;3.710;2022-11-25T00:28:01;9.90;99.90
25346;DHT22;13300;51.032;3.710;2022-11-25T00:30:27;9.90;99.90
25346;DHT22;13300;51.032;3.710;2022-11-25T00:32:53;9.70;99.90
25346;DHT22;13300;51.032;3.710;2022-11-25T00:35:18;9.70;99.90
25346;DHT22;13300;51.032;3.710;2022-11-25T00:37:44;9.70;99.90
25346;DHT22;13300;51.032;3.710;2022-11-25T00:40:09;9.60;99.90
25346;DHT22;13300;51.032;3.710;2022-11-25T00:42:35;9.50;99.90
25346;DHT22;13300;51.032;3.710;2022-11-25T00:45:19;9.50;99.90
25346;DHT22;13300;51.032;3.710;2022-11-25T00:47:45;9.50;99.90
25346;DHT22;13300;51.032;3.710;2022-11-25T00:50:11;9.50;99.90
25346;DHT22;13300;51.032;3.710;2022-11-25T00:52:36;9.60;99.90
25346;DHT22;13300;51.032;3.710;2022-11-25T00:55:02;9.40;99.90
25346;DHT22;13300;51.032;3.710;2022-11-25T00:57:28;9.30;99.90
25346;DHT22;13300;51.032;3.710;2022-11-25T00:59:54;9.40;99.90
25346;DHT22;13300;51.032;3.710;2022-11-25T01:02:20;9.40;99.90
25346;DHT22;13300;51.032;3.710;2022-11-25T01:04:46;9.40;99.90
25346;DHT22;13300;51.032;3.710;2022-11-25T01:07:11;9.30;99.90
25346;DHT22;13300;51.032;3.710;2022-11-25T01:09:37;9.30;99.90
25346;DHT22;13300;51.032;3.710;2022-11-25T01:12:03;9.30;99.90
25346;DHT22;13300;51.032;3.710;2022-11-25T01:14:29;9.30;99.90
25346;DHT22;13300;51.032;3.710;2022-11-25T01:16:54;9.20;99.90
25346;DHT22;13300;51.032;3.710;2022-11-25T01:19:20;9.20;99.90
25346;DHT22;13300;51.032;3.710;2022-11-25T01:21:46;9.20;99.90
25346;DHT22;13300;51.032;3.710;2022-11-25T01:24:12;9.20;99.90
25346;DHT22;13300;51.032;3.710;2022-11-25T01:26:38;9.20;99.90
25346;DHT22;13300;51.032;3.710;2022-11-25T01:29:05;9.20;99.90
25346;DHT22;13300;51.032;3.710;2022-11-25T01:31:32;9.20;99.90
25346;DHT22;13300;51.032;3.710;2022-11-25T01:33:59;9.20;99.90
25346;DHT22;13300;51.032;3.710;2022-11-25T01:36:25;9.20;99.90
25346;DHT22;13300;51.032;3.710;2022-11-25T01:38:52;9.20;99.90
25346;DHT22;13300;51.032;3.710;2022-11-25T01:41:18;9.10;99.90
25346;DHT22;13300;51.032;3.710;2022-11-25T01:44:01;9.10;99.90
25346;DHT22;13300;51.032;3.710;2022-11-25T01:46:26;9.20;99.90
25346;DHT22;13300;51.032;3.710;2022-11-25T01:48:56;9.30;99.90
25346;DHT22;13300;51.032;3.710;2022-11-25T01:53:47;9.20;99.90
25346;DHT22;13300;51.032;3.710;2022-11-25T01:56:13;9.10;99.90
25346;DHT22;13300;51.032;3.710;2022-11-25T01:58:39;9.10;99.90
25346;DHT22;13300;51.032;3.710;2022-11-25T02:01:05;9.10;99.90
25346;DHT22;13300;51.032;3.710;2022-11-25T02:03:36;9.20;99.90
25346;DHT22;13300;51.032;3.710;2022-11-25T02:06:20;9.10;99.90
25346;DHT22;13300;51.032;3.710;2022-11-25T02:08:47;9.10;99.90
25346;DHT22;13300;51.032;3.710;2022-11-25T02:11:14;9.10;99.90
25346;DHT22;13300;51.032;3.710;2022-11-25T02:13:41;9.00;99.90
25346;DHT22;13300;51.032;3.710;2022-11-25T02:16:06;9.00;99.90
25346;DHT22;13300;51.032;3.710;2022-11-25T02:18:32;8.90;99.90
25346;DHT22;13300;51.032;3.710;2022-11-25T02:20:58;8.90;99.90
25346;DHT22;13300;51.032;3.710;2022-11-25T02:25:58;9.00;99.90
25346;DHT22;13300;51.032;3.710;2022-11-25T02:28:25;9.00;99.90
25346;DHT22;13300;51.032;3.710;2022-11-25T02:30:51;8.90;99.90
25346;DHT22;13300;51.032;3.710;2022-11-25T02:33:17;8.90;99.90
25346;DHT22;13300;51.032;3.710;2022-11-25T02:35:56;8.90;99.90
25346;DHT22;13300;51.032;3.710;2022-11-25T02:38:27;9.00;99.90
25346;DHT22;13300;51.032;3.710;2022-11-25T02:43:39;8.90;99.90
25346;DHT22;13300;51.032;3.710;2022-11-25T02:46:08;9.00;99.90
25346;DHT22;13300;51.032;3.710;2022-11-25T02:48:35;9.00;99.90
25346;DHT22;13300;51.032;3.710;2022-11-25T02:51:01;9.00;99.90
25346;DHT22;13300;51.032;3.710;2022-11-25T02:53:27;9.10;99.90
25346;DHT22;13300;51.032;3.710;2022-11-25T02:55:52;9.00;99.90
25346;DHT22;13300;51.032;3.710;2022-11-25T02:58:18;9.10;99.90
25346;DHT22;13300;51.032;3.710;2022-11-25T03:00:44;9.00;99.90
25346;DHT22;13300;51.032;3.710;2022-11-25T03:03:09;8.90;99.90
25346;DHT22;13300;51.032;3.710;2022-11-25T03:05:35;9.00;99.90
25346;DHT22;13300;51.032;3.710;2022-11-25T03:08:01;9.00;99.90
25346;DHT22;13300;51.032;3.710;2022-11-25T03:10:26;9.00;99.90
25346;DHT22;13300;51.032;3.710;2022-11-25T03:12:52;9.00;99.90
25346;DHT22;13300;51.032;3.710;2022-11-25T03:15:18;9.00;99.90
25346;DHT22;13300;51.032;3.710;2022-11-25T03:17:44;9.10;99.90
25346;DHT22;13300;51.032;3.710;2022-11-25T03:20:10;9.20;99.90
25346;DHT22;13300;51.032;3.710;2022-11-25T03:22:37;9.20;99.90
25346;DHT22;13300;51.032;3.710;2022-11-25T03:25:02;9.20;99.90
25346;DHT22;13300;51.032;3.710;2022-11-25T03:27:28;9.30;99.90
25346;DHT22;13300;51.032;3.710;2022-11-25T03:29:53;9.30;99.90
25346;DHT22;13300;51.032;3.710;2022-11-25T03:32:19;9.40;99.90
25346;DHT22;13300;51.032;3.710;2022-11-25T03:34:45;9.40;99.90
25346;DHT22;13300;51.032;3.710;2022-11-25T03:37:10;9.50;99.90
25346;DHT22;13300;51.032;3.710;2022-11-25T03:39:36;9.50;99.90
25346;DHT22;13300;51.032;3.710;2022-11-25T03:42:01;9.50;99.90
25346;DHT22;13300;51.032;3.710;2022-11-25T03:44:27;9.50;99.90
25346;DHT22;13300;51.032;3.710;2022-11-25T03:46:53;9.50;99.90
25346;DHT22;13300;51.032;3.710;2022-11-25T03:49:18;9.50;99.90
25346;DHT22;13300;51.032;3.710;2022-11-25T03:51:47;9.60;99.90
25346;DHT22;13300;51.032;3.710;2022-11-25T03:54:13;9.60;99.90
25346;DHT22;13300;51.032;3.710;2022-11-25T03:56:38;9.70;99.90
25346;DHT22;13300;51.032;3.710;2022-11-25T03:59:04;9.70;99.90
25346;DHT22;13300;51.032;3.710;2022-11-25T04:01:30;9.60;99.90
25346;DHT22;13300;51.032;3.710;2022-11-25T04:03:55;9.60;99.90
25346;DHT22;13300;51.032;3.710;2022-11-25T04:06:21;9.60;99.90
25346;DHT22;13300;51.032;3.710;2022-11-25T04:08:51;9.60;99.90
25346;DHT22;13300;51.032;3.710;2022-11-25T04:11:19;9.70;99.90
25346;DHT22;13300;51.032;3.710;2022-11-25T04:13:44;9.70;99.90
25346;DHT22;13300;51.032;3.710;2022-11-25T04:16:21;9.70;99.90
25346;DHT22;13300;51.032;3.710;2022-11-25T04:18:47;9.70;99.90
25346;DHT22;13300;51.032;3.710;2022-11-25T04:21:13;9.80;99.90
25346;DHT22;13300;51.032;3.710;2022-11-25T04:23:39;9.60;99.90
25346;DHT22;13300;51.032;3.710;2022-11-25T04:26:04;9.50;99.90
25346;DHT22;13300;51.032;3.710;2022-11-25T04:28:30;9.50;99.90
25346;DHT22;13300;51.032;3.710;2022-11-25T04:30:55;9.70;99.90
25346;DHT22;13300;51.032;3.710;2022-11-25T04:33:21;9.60;99.90
25346;DHT22;13300;51.032;3.710;2022-11-25T04:35:47;9.60;99.90
25346;DHT22;13300;51.032;3.710;2022-11-25T04:38:12;9.70;99.90
25346;DHT22;13300;51.032;3.710;2022-11-25T04:40:38;9.70;99.90
25346;DHT22;13300;51.032;3.710;2022-11-25T04:43:03;9.70;99.90
25346;DHT22;13300;51.032;3.710;2022-11-25T04:45:29;9.60;99.90
25346;DHT22;13300;51.032;3.710;2022-11-25T04:47:54;9.50;99.90
25346;DHT22;13300;51.032;3.710;2022-11-25T04:50:22;9.50;99.90
25346;DHT22;13300;51.032;3.710;2022-11-25T04:52:47;9.60;99.90
25346;DHT22;13300;51.032;3.710;2022-11-25T04:55:13;9.70;99.90
25346;DHT22;13300;51.032;3.710;2022-11-25T04:57:39;9.70;99.90
25346;DHT22;13300;51.032;3.710;2022-11-25T05:00:05;9.70;99.90
25346;DHT22;13300;51.032;3.710;2022-11-25T05:02:31;9.70;99.90
25346;DHT22;13300;51.032;3.710;2022-11-25T05:04:56;9.60;99.90
25346;DHT22;13300;51.032;3.710;2022-11-25T05:07:23;9.60;99.90
25346;DHT22;13300;51.032;3.710;2022-11-25T05:09:49;9.40;99.90
25346;DHT22;13300;51.032;3.710;2022-11-25T05:12:16;9.50;99.90
25346;DHT22;13300;51.032;3.710;2022-11-25T05:14:42;9.30;99.90
25346;DHT22;13300;51.032;3.710;2022-11-25T05:17:12;9.40;99.90
25346;DHT22;13300;51.032;3.710;2022-11-25T05:19:40;9.30;99.90
25346;DHT22;13300;51.032;3.710;2022-11-25T05:22:09;9.20;99.90
25346;DHT22;13300;51.032;3.710;2022-11-25T05:24:35;9.20;99.90
25346;DHT22;13300;51.032;3.710;2022-11-25T05:27:01;9.10;99.90
25346;DHT22;13300;51.032;3.710;2022-11-25T05:29:26;9.00;99.90
25346;DHT22;13300;51.032;3.710;2022-11-25T05:31:52;8.90;99.90
25346;DHT22;13300;51.032;3.710;2022-11-25T05:34:17;8.80;99.90
25346;DHT22;13300;51.032;3.710;2022-11-25T05:36:43;8.80;99.90
25346;DHT22;13300;51.032;3.710;2022-11-25T05:39:09;8.80;99.90
25346;DHT22;13300;51.032;3.710;2022-11-25T05:41:34;8.80;99.90
25346;DHT22;13300;51.032;3.710;2022-11-25T05:44:00;8.90;99.90
25346;DHT22;13300;51.032;3.710;2022-11-25T05:46:25;8.90;99.90
25346;DHT22;13300;51.032;3.710;2022-11-25T05:48:52;8.90;99.90
25346;DHT22;13300;51.032;3.710;2022-11-25T05:51:17;8.70;99.90
25346;DHT22;13300;51.032;3.710;2022-11-25T05:53:43;8.60;99.90
25346;DHT22;13300;51.032;3.710;2022-11-25T05:56:09;8.60;99.90
25346;DHT22;13300;51.032;3.710;2022-11-25T05:58:35;8.50;99.90
25346;DHT22;13300;51.032;3.710;2022-11-25T06:01:04;8.40;99.90
25346;DHT22;13300;51.032;3.710;2022-11-25T06:03:30;8.40;99.90
25346;DHT22;13300;51.032;3.710;2022-11-25T06:05:56;8.40;99.90
25346;DHT22;13300;51.032;3.710;2022-11-25T06:08:22;8.40;99.90
25346;DHT22;13300;51.032;3.710;2022-11-25T06:10:50;8.30;99.90
25346;DHT22;13300;51.032;3.710;2022-11-25T06:13:16;8.20;99.90
25346;DHT22;13300;51.032;3.710;2022-11-25T06:15:44;8.20;99.90
25346;DHT22;13300;51.032;3.710;2022-11-25T06:18:10;8.30;99.90
25346;DHT22;13300;51.032;3.710;2022-11-25T06:20:36;8.30;99.90
25346;DHT22;13300;51.032;3.710;2022-11-25T06:23:02;8.30;99.90
25346;DHT22;13300;51.032;3.710;2022-11-25T06:25:32;8.30;99.90
25346;DHT22;13300;51.032;3.710;2022-11-25T06:28:09;8.30;99.90
25346;DHT22;13300;51.032;3.710;2022-11-25T06:30:34;8.40;99.90
25346;DHT22;13300;51.032;3.710;2022-11-25T06:33:02;8.40;99.90
25346;DHT22;13300;51.032;3.710;2022-11-25T06:35:28;8.30;99.90
25346;DHT22;13300;51.032;3.710;2022-11-25T06:37:54;8.30;99.90
25346;DHT22;13300;51.032;3.710;2022-11-25T06:40:19;8.30;99.90
25346;DHT22;13300;51.032;3.710;2022-11-25T06:42:47;8.40;99.90
25346;DHT22;13300;51.032;3.710;2022-11-25T06:45:19;8.30;99.90
25346;DHT22;13300;51.032;3.710;2022-11-25T06:48:05;8.40;99.90
25346;DHT22;13300;51.032;3.710;2022-11-25T06:50:33;8.50;99.90
25346;DHT22;13300;51.032;3.710;2022-11-25T06:53:00;8.50;99.90
25346;DHT22;13300;51.032;3.710;2022-11-25T06:55:29;8.70;99.90
25346;DHT22;13300;51.032;3.710;2022-11-25T06:57:55;8.80;99.90
25346;DHT22;13300;51.032;3.710;2022-11-25T07:00:20;8.90;99.90
25346;DHT22;13300;51.032;3.710;2022-11-25T07:02:48;8.90;99.90
25346;DHT22;13300;51.032;3.710;2022-11-25T07:05:14;8.90;99.90
25346;DHT22;13300;51.032;3.710;2022-11-25T07:07:40;8.90;99.90
25346;DHT22;13300;51.032;3.710;2022-11-25T07:10:06;9.00;99.90
25346;DHT22;13300;51.032;3.710;2022-11-25T07:12:34;8.70;99.90
25346;DHT22;13300;51.032;3.710;2022-11-25T07:15:00;8.70;99.90
25346;DHT22;13300;51.032;3.710;2022-11-25T07:17:25;8.70;99.90
25346;DHT22;13300;51.032;3.710;2022-11-25T07:19:51;8.80;99.90
25346;DHT22;13300;51.032;3.710;2022-11-25T07:22:16;8.80;99.90
25346;DHT22;13300;51.032;3.710;2022-11-25T07:24:42;8.80;99.90
25346;DHT22;13300;51.032;3.710;2022-11-25T07:27:07;8.90;99.90
25346;DHT22;13300;51.032;3.710;2022-11-25T07:29:33;8.90;99.90
25346;DHT22;13300;51.032;3.710;2022-11-25T07:32:00;8.80;99.90
25346;DHT22;13300;51.032;3.710;2022-11-25T07:34:26;8.90;99.90
25346;DHT22;13300;51.032;3.710;2022-11-25T07:36:51;9.00;99.90
25346;DHT22;13300;51.032;3.710;2022-11-25T07:39:19;9.00;99.90
25346;DHT22;13300;51.032;3.710;2022-11-25T07:41:45;8.90;99.90
25346;DHT22;13300;51.032;3.710;2022-11-25T07:44:12;8.80;99.90
25346;DHT22;13300;51.032;3.710;2022-11-25T07:46:39;8.80;99.90
25346;DHT22;13300;51.032;3.710;2022-11-25T07:49:11;8.80;99.90
25346;DHT22;13300;51.032;3.710;2022-11-25T07:51:38;8.90;99.90
25346;DHT22;13300;51.032;3.710;2022-11-25T07:54:05;8.90;99.90
25346;DHT22;13300;51.032;3.710;2022-11-25T07:56:33;8.90;99.90
25346;DHT22;13300;51.032;3.710;2022-11-25T07:58:59;8.90;99.90
25346;DHT22;13300;51.032;3.710;2022-11-25T08:01:24;8.90;99.90
25346;DHT22;13300;51.032;3.710;2022-11-25T08:03:50;8.90;99.90
25346;DHT22;13300;51.032;3.710;2022-11-25T08:06:20;9.00;99.90
25346;DHT22;13300;51.032;3.710;2022-11-25T08:08:45;9.10;99.90
25346;DHT22;13300;51.032;3.710;2022-11-25T08:11:15;9.20;99.90
25346;DHT22;13300;51.032;3.710;2022-11-25T08:13:42;9.20;99.90
25346;DHT22;13300;51.032;3.710;2022-11-25T08:16:07;9.30;99.90
25346;DHT22;13300;51.032;3.710;2022-11-25T08:18:33;9.40;99.90
25346;DHT22;13300;51.032;3.710;2022-11-25T08:20:59;9.40;99.90
25346;DHT22;13300;51.032;3.710;2022-11-25T08:23:25;9.30;99.90
25346;DHT22;13300;51.032;3.710;2022-11-25T08:25:51;9.20;99.90
25346;DHT22;13300;51.032;3.710;2022-11-25T08:28:17;9.10;99.90
25346;DHT22;13300;51.032;3.710;2022-11-25T08:30:43;9.10;99.90
25346;DHT22;13300;51.032;3.710;2022-11-25T08:33:08;8.90;99.90
25346;DHT22;13300;51.032;3.710;2022-11-25T08:35:34;8.90;99.90
25346;DHT22;13300;51.032;3.710;2022-11-25T08:38:04;9.00;99.90
25346;DHT22;13300;51.032;3.710;2022-11-25T08:40:30;9.10;99.90
25346;DHT22;13300;51.032;3.710;2022-11-25T08:42:56;9.00;99.90
25346;DHT22;13300;51.032;3.710;2022-11-25T08:45:24;9.10;99.90
25346;DHT22;13300;51.032;3.710;2022-11-25T08:47:49;9.30;99.90
25346;DHT22;13300;51.032;3.710;2022-11-25T08:50:15;9.90;99.90
25346;DHT22;13300;51.032;3.710;2022-11-25T08:52:41;10.60;99.90
25346;DHT22;13300;51.032;3.710;2022-11-25T08:55:06;11.30;99.90
25346;DHT22;13300;51.032;3.710;2022-11-25T08:57:33;11.40;99.90
25346;DHT22;13300;51.032;3.710;2022-11-25T08:59:58;11.60;99.90
25346;DHT22;13300;51.032;3.710;2022-11-25T09:02:24;12.10;99.90
25346;DHT22;13300;51.032;3.710;2022-11-25T09:04:50;12.70;99.90
25346;DHT22;13300;51.032;3.710;2022-11-25T09:07:16;13.20;99.90
25346;DHT22;13300;51.032;3.710;2022-11-25T09:09:41;13.40;99.90
25346;DHT22;13300;51.032;3.710;2022-11-25T09:12:07;13.50;99.90
25346;DHT22;13300;51.032;3.710;2022-11-25T09:14:33;13.40;99.90
25346;DHT22;13300;51.032;3.710;2022-11-25T09:16:58;13.10;99.90
25346;DHT22;13300;51.032;3.710;2022-11-25T09:19:26;12.90;99.90
25346;DHT22;13300;51.032;3.710;2022-11-25T09:21:52;12.60;99.90
25346;DHT22;13300;51.032;3.710;2022-11-25T09:24:17;12.10;99.90
25346;DHT22;13300;51.032;3.710;2022-11-25T09:26:43;11.40;99.90
25346;DHT22;13300;51.032;3.710;2022-11-25T09:29:09;11.40;99.90
25346;DHT22;13300;51.032;3.710;2022-11-25T09:31:36;11.90;99.90
25346;DHT22;13300;51.032;3.710;2022-11-25T09:34:02;12.90;99.90
25346;DHT22;13300;51.032;3.710;2022-11-25T09:36:27;13.80;99.90
25346;DHT22;13300;51.032;3.710;2022-11-25T09:38:53;14.50;99.90
25346;DHT22;13300;51.032;3.710;2022-11-25T09:44:30;15.70;99.90
25346;DHT22;13300;51.032;3.710;2022-11-25T09:47:22;16.00;99.90
25346;DHT22;13300;51.032;3.710;2022-11-25T09:49:59;16.10;99.90
25346;DHT22;13300;51.032;3.710;2022-11-25T09:52:40;16.60;99.90
25346;DHT22;13300;51.032;3.710;2022-11-25T09:55:14;16.90;99.90
25346;DHT22;13300;51.032;3.710;2022-11-25T10:00:12;17.20;99.90
25346;DHT22;13300;51.032;3.710;2022-11-25T10:05:07;17.60;99.90
25346;DHT22;13300;51.032;3.710;2022-11-25T10:07:38;18.00;99.90
25346;DHT22;13300;51.032;3.710;2022-11-25T10:10:06;18.10;99.90
25346;DHT22;13300;51.032;3.710;2022-11-25T10:12:36;18.20;99.90
25346;DHT22;13300;51.032;3.710;2022-11-25T10:15:11;18.30;99.90
25346;DHT22;13300;51.032;3.710;2022-11-25T10:20:12;18.30;99.90
25346;DHT22;13300;51.032;3.710;2022-11-25T10:22:40;18.00;99.90
25346;DHT22;13300;51.032;3.710;2022-11-25T10:25:18;17.90;99.90
25346;DHT22;13300;51.032;3.710;2022-11-25T10:30:36;17.70;99.90
25346;DHT22;13300;51.032;3.710;2022-11-25T10:33:05;17.60;99.90
25346;DHT22;13300;51.032;3.710;2022-11-25T10:35:34;18.30;99.90
25346;DHT22;13300;51.032;3.710;2022-11-25T10:38:02;18.20;99.90
25346;DHT22;13300;51.032;3.710;2022-11-25T10:40:30;18.40;99.90
25346;DHT22;13300;51.032;3.710;2022-11-25T10:42:55;18.80;99.90
25346;DHT22;13300;51.032;3.710;2022-11-25T10:45:24;18.80;99.90
25346;DHT22;13300;51.032;3.710;2022-11-25T10:53:07;18.80;99.90
25346;DHT22;13300;51.032;3.710;2022-11-25T10:55:34;19.00;99.90
25346;DHT22;13300;51.032;3.710;2022-11-25T10:58:45;19.10;99.90
25346;DHT22;13300;51.032;3.710;2022-11-25T11:00:46;19.30;99.90
25346;DHT22;13300;51.032;3.710;2022-11-25T11:03:18;19.70;99.90
25346;DHT22;13300;51.032;3.710;2022-11-25T11:05:47;20.10;99.90
25346;DHT22;13300;51.032;3.710;2022-11-25T11:08:19;20.00;99.90
25346;DHT22;13300;51.032;3.710;2022-11-25T11:10:45;19.90;99.90
25346;DHT22;13300;51.032;3.710;2022-11-25T11:13:22;19.80;99.90
25346;DHT22;13300;51.032;3.710;2022-11-25T11:15:51;19.50;99.90
25346;DHT22;13300;51.032;3.710;2022-11-25T11:21:02;20.20;99.90
25346;DHT22;13300;51.032;3.710;2022-11-25T11:23:29;20.60;99.90
25346;DHT22;13300;51.032;3.710;2022-11-25T11:25:56;20.80;99.90
25346;DHT22;13300;51.032;3.710;2022-11-25T11:31:25;21.50;99.90
25346;DHT22;13300;51.032;3.710;2022-11-25T11:36:15;21.00;99.90
25346;DHT22;13300;51.032;3.710;2022-11-25T11:38:51;20.30;99.90
25346;DHT22;13300;51.032;3.710;2022-11-25T11:41:34;19.70;99.90
25346;DHT22;13300;51.032;3.710;2022-11-25T11:44:08;19.90;99.90
25346;DHT22;13300;51.032;3.710;2022-11-25T11:49:14;20.90;99.90
25346;DHT22;13300;51.032;3.710;2022-11-25T11:52:45;21.00;99.90
25346;DHT22;13300;51.032;3.710;2022-11-25T11:54:41;21.00;99.90
25346;DHT22;13300;51.032;3.710;2022-11-25T11:59:55;21.30;99.90
25346;DHT22;13300;51.032;3.710;2022-11-25T12:05:15;21.20;99.90
25346;DHT22;13300;51.032;3.710;2022-11-25T12:10:27;20.40;99.90
25346;DHT22;13300;51.032;3.710;2022-11-25T12:15:32;20.30;99.90
25346;DHT22;13300;51.032;3.710;2022-11-25T12:18:01;19.60;99.90
25346;DHT22;13300;51.032;3.710;2022-11-25T12:20:37;18.90;99.90
25346;DHT22;13300;51.032;3.710;2022-11-25T12:23:12;18.70;99.90
25346;DHT22;13300;51.032;3.710;2022-11-25T12:25:41;18.70;99.90
25346;DHT22;13300;51.032;3.710;2022-11-25T12:28:12;18.00;99.90
25346;DHT22;13300;51.032;3.710;2022-11-25T12:30:44;17.40;99.90
25346;DHT22;13300;51.032;3.710;2022-11-25T12:33:18;16.90;99.90
25346;DHT22;13300;51.032;3.710;2022-11-25T12:35:55;16.60;99.90
25346;DHT22;13300;51.032;3.710;2022-11-25T12:38:27;16.50;99.90
25346;DHT22;13300;51.032;3.710;2022-11-25T12:46:51;15.70;99.90
25346;DHT22;13300;51.032;3.710;2022-11-25T12:49:27;15.70;99.90
25346;DHT22;13300;51.032;3.710;2022-11-25T12:57:25;15.70;99.90
25346;DHT22;13300;51.032;3.710;2022-11-25T13:15:46;16.90;99.90
25346;DHT22;13300;51.032;3.710;2022-11-25T13:18:13;17.10;99.90
25346;DHT22;13300;51.032;3.710;2022-11-25T13:20:41;17.20;99.90
25346;DHT22;13300;51.032;3.710;2022-11-25T13:25:41;16.90;99.90
25346;DHT22;13300;51.032;3.710;2022-11-25T13:30:52;16.10;99.90
25346;DHT22;13300;51.032;3.710;2022-11-25T13:35:53;15.30;99.90
25346;DHT22;13300;51.032;3.710;2022-11-25T13:40:57;14.80;99.90
25346;DHT22;13300;51.032;3.710;2022-11-25T13:43:23;14.60;99.90
25346;DHT22;13300;51.032;3.710;2022-11-25T13:45:49;14.60;99.90
25346;DHT22;13300;51.032;3.710;2022-11-25T13:48:22;14.60;99.90
25346;DHT22;13300;51.032;3.710;2022-11-25T13:50:49;14.60;99.90
25346;DHT22;13300;51.032;3.710;2022-11-25T13:53:22;14.50;99.90
25346;DHT22;13300;51.032;3.710;2022-11-25T13:55:49;14.40;99.90
25346;DHT22;13300;51.032;3.710;2022-11-25T14:00:42;14.50;99.90
25346;DHT22;13300;51.032;3.710;2022-11-25T14:03:53;14.40;99.90
25346;DHT22;13300;51.032;3.710;2022-11-25T14:22:01;13.90;99.90
25346;DHT22;13300;51.032;3.710;2022-11-25T14:26:59;13.90;99.90
25346;DHT22;13300;51.032;3.710;2022-11-25T14:32:00;13.80;99.90
25346;DHT22;13300;51.032;3.710;2022-11-25T14:37:16;13.70;99.90
25346;DHT22;13300;51.032;3.710;2022-11-25T14:42:20;13.70;99.90
25346;DHT22;13300;51.032;3.710;2022-11-25T14:44:48;13.70;99.90
25346;DHT22;13300;51.032;3.710;2022-11-25T14:47:13;13.70;99.90
25346;DHT22;13300;51.032;3.710;2022-11-25T14:52:31;13.70;99.90
25346;DHT22;13300;51.032;3.710;2022-11-25T14:54:57;13.70;99.90
25346;DHT22;13300;51.032;3.710;2022-11-25T14:57:25;13.60;99.90
25346;DHT22;13300;51.032;3.710;2022-11-25T14:59:51;13.50;99.90
25346;DHT22;13300;51.032;3.710;2022-11-25T15:02:22;13.50;99.90
25346;DHT22;13300;51.032;3.710;2022-11-25T15:04:49;13.30;99.90
25346;DHT22;13300;51.032;3.710;2022-11-25T15:07:20;13.30;99.90
25346;DHT22;13300;51.032;3.710;2022-11-25T15:09:46;13.20;99.90
25346;DHT22;13300;51.032;3.710;2022-11-25T15:12:13;13.00;99.90
25346;DHT22;13300;51.032;3.710;2022-11-25T15:14:40;12.80;99.90
25346;DHT22;13300;51.032;3.710;2022-11-25T15:17:24;12.70;99.90
25346;DHT22;13300;51.032;3.710;2022-11-25T15:19:51;12.60;99.90
25346;DHT22;13300;51.032;3.710;2022-11-25T15:22:19;12.60;99.90
25346;DHT22;13300;51.032;3.710;2022-11-25T15:24:46;12.50;99.90
25346;DHT22;13300;51.032;3.710;2022-11-25T15:27:13;12.50;99.90
25346;DHT22;13300;51.032;3.710;2022-11-25T15:29:40;12.30;99.90
25346;DHT22;13300;51.032;3.710;2022-11-25T15:32:07;12.30;99.90
25346;DHT22;13300;51.032;3.710;2022-11-25T15:34:37;12.30;99.90
25346;DHT22;13300;51.032;3.710;2022-11-25T15:37:02;12.30;99.90
25346;DHT22;13300;51.032;3.710;2022-11-25T15:39:28;12.20;99.90
25346;DHT22;13300;51.032;3.710;2022-11-25T15:41:55;12.10;99.90
25346;DHT22;13300;51.032;3.710;2022-11-25T15:44:31;12.00;99.90
25346;DHT22;13300;51.032;3.710;2022-11-25T15:50:25;11.90;99.90
25346;DHT22;13300;51.032;3.710;2022-11-25T15:52:33;11.80;99.90
25346;DHT22;13300;51.032;3.710;2022-11-25T15:55:25;11.70;99.90
25346;DHT22;13300;51.032;3.710;2022-11-25T15:57:51;11.60;99.90
25346;DHT22;13300;51.032;3.710;2022-11-25T16:00:19;11.50;99.90
25346;DHT22;13300;51.032;3.710;2022-11-25T16:07:38;11.40;99.90
25346;DHT22;13300;51.032;3.710;2022-11-25T16:10:22;11.40;99.90
25346;DHT22;13300;51.032;3.710;2022-11-25T16:18:19;11.20;99.90
25346;DHT22;13300;51.032;3.710;2022-11-25T16:20:48;11.10;99.90
25346;DHT22;13300;51.032;3.710;2022-11-25T16:23:14;11.00;99.90
25346;DHT22;13300;51.032;3.710;2022-11-25T16:28:33;11.00;99.90
25346;DHT22;13300;51.032;3.710;2022-11-25T16:30:58;10.90;99.90
25346;DHT22;13300;51.032;3.710;2022-11-25T16:33:26;10.90;99.90
25346;DHT22;13300;51.032;3.710;2022-11-25T16:35:51;10.80;99.90
25346;DHT22;13300;51.032;3.710;2022-11-25T16:38:17;10.90;99.90
25346;DHT22;13300;51.032;3.710;2022-11-25T16:40:44;10.80;99.90
25346;DHT22;13300;51.032;3.710;2022-11-25T16:43:23;10.80;99.90
25346;DHT22;13300;51.032;3.710;2022-11-25T16:45:51;10.80;99.90
25346;DHT22;13300;51.032;3.710;2022-11-25T16:48:18;10.70;99.90
25346;DHT22;13300;51.032;3.710;2022-11-25T16:50:44;10.60;99.90
25346;DHT22;13300;51.032;3.710;2022-11-25T16:53:10;10.60;99.90
25346;DHT22;13300;51.032;3.710;2022-11-25T16:55:36;10.40;99.90
25346;DHT22;13300;51.032;3.710;2022-11-25T16:58:07;10.50;99.90
25346;DHT22;13300;51.032;3.710;2022-11-25T17:00:38;10.40;99.90
25346;DHT22;13300;51.032;3.710;2022-11-25T17:03:11;10.40;99.90
25346;DHT22;13300;51.032;3.710;2022-11-25T17:05:39;10.30;99.90
25346;DHT22;13300;51.032;3.710;2022-11-25T17:08:04;10.50;99.90
25346;DHT22;13300;51.032;3.710;2022-11-25T17:10:30;10.40;99.90
25346;DHT22;13300;51.032;3.710;2022-11-25T17:12:59;10.20;99.90
25346;DHT22;13300;51.032;3.710;2022-11-25T17:15:28;10.40;99.90
25346;DHT22;13300;51.032;3.710;2022-11-25T17:17:54;10.40;99.90
25346;DHT22;13300;51.032;3.710;2022-11-25T17:20:21;10.20;99.90
25346;DHT22;13300;51.032;3.710;2022-11-25T17:22:49;10.20;99.90
25346;DHT22;13300;51.032;3.710;2022-11-25T17:25:15;10.20;99.90
25346;DHT22;13300;51.032;3.710;2022-11-25T17:27:41;10.30;99.90
25346;DHT22;13300;51.032;3.710;2022-11-25T17:30:18;10.20;99.90
25346;DHT22;13300;51.032;3.710;2022-11-25T17:32:45;10.10;99.90
25346;DHT22;13300;51.032;3.710;2022-11-25T17:35:18;10.00;99.90
25346;DHT22;13300;51.032;3.710;2022-11-25T17:37:44;10.00;99.90
25346;DHT22;13300;51.032;3.710;2022-11-25T17:40:12;9.90;99.90
25346;DHT22;13300;51.032;3.710;2022-11-25T17:42:40;9.90;99.90
25346;DHT22;13300;51.032;3.710;2022-11-25T17:45:14;9.80;99.90
25346;DHT22;13300;51.032;3.710;2022-11-25T17:47:43;10.10;99.90
25346;DHT22;13300;51.032;3.710;2022-11-25T17:50:30;10.00;99.90
25346;DHT22;13300;51.032;3.710;2022-11-25T17:53:06;9.90;99.90
25346;DHT22;13300;51.032;3.710;2022-11-25T17:55:35;9.90;99.90
25346;DHT22;13300;51.032;3.710;2022-11-25T17:58:03;9.90;99.90